Nesenie raksti

Ziņas

Par Gliding.lv

Gliding.lv ir interneta vietne par planieriem un planierismu. Šeit būs atrodama informācija par iespējām pamēģināt, iesaistīties un organizēt planierisma aktivitātes. Izmanto Gliding.lv forumu, ja Tev ir kāda tēma diskusijai vai jautājums. Gliding.lv merķis ir informēt un apvienot planierisma interesentus, nodrošinot un apmainoties ar aktuālāko un arī bijušo. Lidojam!

Laiks Rīgā
24°
clear sky
mitrums: 41%
vējš: 4m/s ZZA
Aug 22 • Zem 20
24°
Ses
25°
Svē
21°
Pir
20°
Otr
Meteo-dati no OpenWeatherMap

METAR

EVRA 071620Z 01008KT CAVOK 24/11 Q1027 NOSIG

EVLA 071620Z AUTO 01005KT 320V040 9999 NCD 26/13 Q1026

EVVA 071620Z AUTO 01006KT CAVOK 23/11 Q1027

Nesenie raksti

Pāriet uz rīkjoslu